createdAt,value
2019-02-18T00:01:59.928Z,5.40
2019-02-18T00:04:31.436Z,5.30
2019-02-18T00:07:13.719Z,5.40
2019-02-18T00:09:36.894Z,5.20
2019-02-18T00:12:09.070Z,5.00
2019-02-18T00:14:40.898Z,5.10
2019-02-18T00:17:12.670Z,5.10
2019-02-18T00:19:44.563Z,5.10
2019-02-18T00:22:16.592Z,5.10
2019-02-18T00:24:48.245Z,5.10
2019-02-18T00:27:19.690Z,5.20
2019-02-18T00:29:51.593Z,5.20
2019-02-18T00:32:23.516Z,5.30
2019-02-18T00:34:54.903Z,5.30
2019-02-18T00:37:26.264Z,5.20
2019-02-18T00:39:57.903Z,5.30
2019-02-18T00:42:29.301Z,5.40
2019-02-18T00:45:00.788Z,5.30
2019-02-18T00:47:32.060Z,5.30
2019-02-18T00:50:03.612Z,5.40
2019-02-18T00:52:36.527Z,5.40
2019-02-18T00:55:08.129Z,5.40
2019-02-18T00:57:39.651Z,5.30
2019-02-18T01:00:13.683Z,5.40
2019-02-18T01:02:45.510Z,5.50
2019-02-18T01:05:17.007Z,5.50
2019-02-18T01:07:48.824Z,5.60
2019-02-18T01:10:20.545Z,5.50
2019-02-18T01:12:52.687Z,5.50
2019-02-18T01:15:24.259Z,5.40
2019-02-18T01:17:55.719Z,5.40
2019-02-18T01:20:27.385Z,5.50
2019-02-18T01:22:59.452Z,5.60
2019-02-18T01:25:31.910Z,5.60
2019-02-18T01:28:03.420Z,5.70
2019-02-18T01:30:35.419Z,5.40
2019-02-18T01:33:07.220Z,5.50
2019-02-18T01:35:38.787Z,5.40
2019-02-18T01:38:10.789Z,5.40
2019-02-18T01:40:42.543Z,5.40
2019-02-18T01:43:15.228Z,5.40
2019-02-18T01:45:46.883Z,5.30
2019-02-18T01:48:18.243Z,5.40
2019-02-18T01:50:51.369Z,5.40
2019-02-18T01:53:23.332Z,5.50
2019-02-18T01:55:54.689Z,5.30
2019-02-18T01:58:26.171Z,5.10
2019-02-18T02:00:57.559Z,5.10
2019-02-18T02:03:29.682Z,5.20
2019-02-18T02:06:01.869Z,5.10
2019-02-18T02:08:33.184Z,5.10
2019-02-18T02:11:04.628Z,5.10
2019-02-18T02:13:36.974Z,5.10
2019-02-18T02:16:11.128Z,5.30
2019-02-18T02:18:42.631Z,5.30
2019-02-18T02:21:14.485Z,5.40
2019-02-18T02:23:45.977Z,5.40
2019-02-18T02:26:17.557Z,5.40
2019-02-18T02:28:49.165Z,5.40
2019-02-18T02:31:20.814Z,5.40
2019-02-18T02:33:53.547Z,5.50
2019-02-18T02:36:24.883Z,5.50
2019-02-18T02:38:56.419Z,5.50
2019-02-18T02:41:28.308Z,5.20
2019-02-18T02:43:59.720Z,5.20
2019-02-18T02:46:31.088Z,5.10
2019-02-18T02:49:03.466Z,5.20
2019-02-18T02:51:34.736Z,5.10
2019-02-18T02:54:06.180Z,5.10
2019-02-18T02:56:37.880Z,5.20
2019-02-18T02:59:09.388Z,5.20
2019-02-18T03:01:46.174Z,5.20
2019-02-18T03:04:17.565Z,5.40
2019-02-18T03:06:49.045Z,5.40
2019-02-18T03:09:20.625Z,5.30
2019-02-18T03:11:52.691Z,5.20
2019-02-18T03:14:24.096Z,5.20
2019-02-18T03:16:55.440Z,5.20
2019-02-18T03:19:26.869Z,5.40
2019-02-18T03:21:58.126Z,5.40
2019-02-18T03:24:29.493Z,5.40
2019-02-18T03:27:01.169Z,5.40
2019-02-18T03:30:01.942Z,5.40
2019-02-18T03:32:41.709Z,5.20
2019-02-18T03:35:13.120Z,5.20
2019-02-18T03:37:44.574Z,5.30
2019-02-18T03:40:16.029Z,5.20
2019-02-18T03:42:47.876Z,5.30
2019-02-18T03:45:19.547Z,5.30
2019-02-18T03:47:51.518Z,5.40
2019-02-18T03:50:23.162Z,5.40
2019-02-18T03:52:54.908Z,5.50
2019-02-18T03:55:26.397Z,5.40
2019-02-18T03:57:57.864Z,5.40
2019-02-18T04:00:29.310Z,5.30
2019-02-18T04:03:01.225Z,5.50
2019-02-18T04:05:33.910Z,5.50
2019-02-18T04:08:05.382Z,5.40
2019-02-18T04:10:36.958Z,5.40
2019-02-18T04:13:09.381Z,5.50
2019-02-18T04:15:41.096Z,5.40
2019-02-18T04:18:12.693Z,5.30
2019-02-18T04:20:44.304Z,5.50
2019-02-18T04:23:17.196Z,5.50
2019-02-18T04:25:48.745Z,5.50
2019-02-18T04:28:20.469Z,5.50
2019-02-18T04:30:52.327Z,5.50
2019-02-18T04:33:23.999Z,5.30
2019-02-18T04:35:55.446Z,5.40
2019-02-18T04:38:26.887Z,5.40
2019-02-18T04:40:58.375Z,5.20
2019-02-18T04:43:29.900Z,5.00
2019-02-18T04:46:01.260Z,5.20
2019-02-18T04:48:32.728Z,5.30
2019-02-18T04:51:04.380Z,5.30
2019-02-18T04:53:36.268Z,5.30
2019-02-18T04:56:07.829Z,5.30
2019-02-18T04:58:39.879Z,5.30
2019-02-18T05:01:11.917Z,5.40
2019-02-18T05:03:43.525Z,5.30
2019-02-18T05:06:15.062Z,5.20
2019-02-18T05:08:47.038Z,5.10
2019-02-18T05:11:18.490Z,5.10
2019-02-18T05:13:50.514Z,5.30
2019-02-18T05:16:22.150Z,5.20
2019-02-18T05:18:53.904Z,5.20
2019-02-18T05:21:26.061Z,5.20
2019-02-18T05:23:57.442Z,5.00
2019-02-18T05:26:29.009Z,5.00
2019-02-18T05:29:00.540Z,5.10
2019-02-18T05:31:32.000Z,5.00
2019-02-18T05:34:03.742Z,5.10
2019-02-18T05:36:36.794Z,5.30
2019-02-18T05:39:17.550Z,5.30
2019-02-18T05:41:42.706Z,5.30
2019-02-18T05:44:14.297Z,5.20
2019-02-18T05:46:46.023Z,5.20
2019-02-18T05:49:17.687Z,5.20
2019-02-18T05:51:49.331Z,5.20
2019-02-18T05:54:21.110Z,5.20
2019-02-18T05:56:53.913Z,5.10
2019-02-18T05:59:25.669Z,5.10
2019-02-18T06:01:57.110Z,5.10
2019-02-18T06:04:28.870Z,5.10
2019-02-18T06:07:00.337Z,5.00
2019-02-18T06:09:31.876Z,5.20
2019-02-18T06:12:03.452Z,5.10
2019-02-18T06:14:35.767Z,5.20
2019-02-18T06:17:07.273Z,5.20
2019-02-18T06:19:38.720Z,5.00
2019-02-18T06:22:10.925Z,5.00
2019-02-18T06:24:42.830Z,4.90
2019-02-18T06:27:14.415Z,5.00
2019-02-18T06:29:46.309Z,5.10
2019-02-18T06:32:18.471Z,5.20
2019-02-18T06:34:52.431Z,5.10
2019-02-18T06:37:23.969Z,5.00
2019-02-18T06:39:55.479Z,5.00
2019-02-18T06:42:27.209Z,5.00
2019-02-18T06:45:23.268Z,4.90
2019-02-18T06:47:54.912Z,4.80
2019-02-18T06:50:26.302Z,4.90
2019-02-18T06:52:57.762Z,4.80
2019-02-18T06:55:29.276Z,4.90
2019-02-18T06:58:31.876Z,5.00
2019-02-18T07:01:17.977Z,4.90
2019-02-18T07:04:24.151Z,5.00
2019-02-18T07:07:01.583Z,4.80
2019-02-18T07:09:51.188Z,4.80
2019-02-18T07:12:28.093Z,4.80
2019-02-18T07:15:02.347Z,4.80
2019-02-18T07:17:35.026Z,4.90
2019-02-18T07:20:07.351Z,5.10
2019-02-18T07:22:39.556Z,5.10
2019-02-18T07:25:11.964Z,5.10
2019-02-18T07:27:43.386Z,5.20
2019-02-18T07:30:16.203Z,5.20
2019-02-18T07:32:48.437Z,5.20
2019-02-18T07:35:19.891Z,5.20
2019-02-18T07:37:51.661Z,4.90
2019-02-18T07:40:23.405Z,5.00
2019-02-18T07:42:56.271Z,5.10
2019-02-18T07:45:27.967Z,5.10
2019-02-18T07:47:59.609Z,5.00
2019-02-18T07:50:31.288Z,5.00
2019-02-18T07:53:03.844Z,5.10
2019-02-18T07:55:35.191Z,5.10
2019-02-18T07:58:06.707Z,4.90
2019-02-18T08:00:39.516Z,4.80
2019-02-18T08:03:11.371Z,4.70
2019-02-18T08:05:43.446Z,4.90
2019-02-18T08:08:14.915Z,5.00
2019-02-18T08:10:46.492Z,5.20
2019-02-18T08:13:18.272Z,5.00
2019-02-18T08:15:50.193Z,5.20
2019-02-18T08:18:21.603Z,5.30
2019-02-18T08:20:53.691Z,5.00
2019-02-18T08:23:30.347Z,4.80
2019-02-18T08:26:01.805Z,4.80
2019-02-18T08:28:33.515Z,4.80
2019-02-18T08:31:05.603Z,4.70
2019-02-18T08:33:37.191Z,4.70
2019-02-18T08:36:08.720Z,4.70
2019-02-18T08:38:40.017Z,4.80
2019-02-18T08:41:12.240Z,4.80
2019-02-18T08:43:43.908Z,4.90
2019-02-18T08:46:15.416Z,4.90
2019-02-18T08:48:46.900Z,5.00
2019-02-18T08:51:18.541Z,5.10
2019-02-18T08:53:50.217Z,5.20
2019-02-18T08:56:21.501Z,5.20
2019-02-18T08:58:53.130Z,5.30
2019-02-18T09:01:24.977Z,5.30
2019-02-18T09:03:56.505Z,5.30
2019-02-18T09:06:28.017Z,5.40
2019-02-18T09:08:59.649Z,5.50
2019-02-18T09:11:31.569Z,5.50
2019-02-18T09:14:03.031Z,5.50
2019-02-18T09:16:34.721Z,5.60
2019-02-18T09:19:06.273Z,5.70
2019-02-18T09:21:37.632Z,5.60
2019-02-18T09:24:16.452Z,5.60
2019-02-18T09:26:48.259Z,5.80
2019-02-18T09:29:19.780Z,5.80
2019-02-18T09:31:51.854Z,5.90
2019-02-18T09:34:23.241Z,5.90
2019-02-18T09:36:56.172Z,5.90
2019-02-18T09:39:31.129Z,5.90
2019-02-18T09:42:06.243Z,5.90
2019-02-18T09:44:37.573Z,6.00
2019-02-18T09:47:09.466Z,6.00
2019-02-18T09:49:41.111Z,6.10
2019-02-18T09:52:12.883Z,6.20
2019-02-18T09:54:44.505Z,6.20
2019-02-18T09:57:15.975Z,6.30
2019-02-18T09:59:47.669Z,6.20
2019-02-18T10:02:19.286Z,6.30
2019-02-18T10:04:52.800Z,6.30
2019-02-18T10:07:25.185Z,6.30
2019-02-18T10:09:56.536Z,6.30
2019-02-18T10:12:29.259Z,6.30
2019-02-18T10:15:00.659Z,6.40
2019-02-18T10:17:31.952Z,6.50
2019-02-18T10:20:03.544Z,6.40
2019-02-18T10:22:34.932Z,6.40
2019-02-18T10:25:07.309Z,6.50
2019-02-18T10:27:38.794Z,6.50
2019-02-18T10:30:10.515Z,6.40
2019-02-18T10:32:47.068Z,6.30
2019-02-18T10:35:18.668Z,6.40
2019-02-18T10:37:55.280Z,6.40
2019-02-18T10:40:23.845Z,6.40
2019-02-18T10:42:57.400Z,6.50
2019-02-18T10:45:28.912Z,6.50
2019-02-18T10:48:00.225Z,6.60
2019-02-18T10:50:31.776Z,6.60
2019-02-18T10:53:09.239Z,6.70
2019-02-18T10:55:41.017Z,6.70
2019-02-18T10:58:12.549Z,6.80
2019-02-18T11:00:44.044Z,6.80
2019-02-18T11:03:15.919Z,6.90
2019-02-18T11:05:47.768Z,6.90
2019-02-18T11:08:19.556Z,7.00
2019-02-18T11:10:51.670Z,6.90
2019-02-18T11:13:23.346Z,6.90
2019-02-18T11:15:54.816Z,7.00
2019-02-18T11:18:27.306Z,6.90
2019-02-18T11:20:58.781Z,7.00
2019-02-18T11:23:31.089Z,7.00
2019-02-18T11:26:02.459Z,7.00
2019-02-18T11:28:33.908Z,7.00
2019-02-18T11:31:05.431Z,6.90
2019-02-18T11:33:36.892Z,7.00
2019-02-18T11:36:08.725Z,6.90
2019-02-18T11:38:40.283Z,7.00
2019-02-18T11:41:27.374Z,7.10
2019-02-18T11:43:53.920Z,7.10
2019-02-18T11:46:25.303Z,7.10
2019-02-18T11:48:57.116Z,7.10
2019-02-18T11:51:28.645Z,7.10
2019-02-18T11:54:00.074Z,7.20
2019-02-18T11:56:31.818Z,7.20
2019-02-18T11:59:03.526Z,7.20
2019-02-18T12:01:35.408Z,7.20
2019-02-18T12:04:06.846Z,7.30
2019-02-18T12:06:38.646Z,7.30
2019-02-18T12:09:10.597Z,7.30
2019-02-18T12:11:42.323Z,7.30
2019-02-18T12:14:14.206Z,7.40
2019-02-18T12:16:45.619Z,7.30
2019-02-18T12:19:17.305Z,7.30
2019-02-18T12:21:49.282Z,7.40
2019-02-18T12:24:20.615Z,7.40
2019-02-18T12:26:52.306Z,7.40
2019-02-18T12:29:26.538Z,7.50
2019-02-18T12:32:05.729Z,7.50
2019-02-18T12:34:38.121Z,7.60
2019-02-18T12:37:09.648Z,7.60
2019-02-18T12:39:41.347Z,7.60
2019-02-18T12:42:13.241Z,7.70
2019-02-18T12:44:44.910Z,7.70
2019-02-18T12:47:16.470Z,7.80
2019-02-18T12:49:48.336Z,7.80
2019-02-18T12:52:20.894Z,7.90
2019-02-18T12:54:52.908Z,7.90
2019-02-18T12:57:24.647Z,7.90
2019-02-18T12:59:56.494Z,8.00
2019-02-18T13:02:28.091Z,8.30
2019-02-18T13:05:00.540Z,8.40
2019-02-18T13:07:33.104Z,8.40
2019-02-18T13:10:05.542Z,8.50
2019-02-18T13:12:37.539Z,8.50
2019-02-18T13:15:11.256Z,8.50
2019-02-18T13:17:43.658Z,8.50
2019-02-18T13:20:14.918Z,8.50
2019-02-18T13:22:46.800Z,8.60
2019-02-18T13:25:19.956Z,8.60
2019-02-18T13:27:52.126Z,8.60
2019-02-18T13:30:23.683Z,8.60
2019-02-18T13:32:55.436Z,8.60
2019-02-18T13:35:27.400Z,8.70
2019-02-18T13:37:59.226Z,8.60
2019-02-18T13:40:30.777Z,8.60
2019-02-18T13:43:02.343Z,8.60
2019-02-18T13:45:34.279Z,8.60
2019-02-18T13:48:06.201Z,8.60
2019-02-18T13:50:38.295Z,8.60
2019-02-18T13:53:11.434Z,8.60
2019-02-18T13:55:43.197Z,8.70
2019-02-18T13:58:15.257Z,8.70
2019-02-18T14:00:47.081Z,8.80
2019-02-18T14:03:19.999Z,8.80
2019-02-18T14:05:51.716Z,8.80
2019-02-18T14:08:23.497Z,8.80
2019-02-18T14:10:55.025Z,8.80
2019-02-18T14:13:26.767Z,8.80
2019-02-18T14:15:58.476Z,8.80
2019-02-18T14:18:29.790Z,8.80
2019-02-18T14:21:01.129Z,8.80
2019-02-18T14:23:32.630Z,8.80
2019-02-18T14:26:04.169Z,8.80
2019-02-18T14:28:35.707Z,8.90
2019-02-18T14:31:07.740Z,8.90
2019-02-18T14:33:39.776Z,8.80
2019-02-18T14:36:11.639Z,8.80
2019-02-18T14:38:43.278Z,8.80
2019-02-18T14:41:20.097Z,8.80
2019-02-18T14:43:51.797Z,8.80
2019-02-18T14:46:23.484Z,8.80
2019-02-18T14:48:55.736Z,8.80
2019-02-18T14:51:27.165Z,8.80
2019-02-18T14:53:59.329Z,8.90
2019-02-18T14:56:30.915Z,8.90
2019-02-18T14:59:02.557Z,8.90
2019-02-18T15:01:34.529Z,8.90
2019-02-18T15:04:06.139Z,8.90
2019-02-18T15:06:39.475Z,8.80
2019-02-18T15:09:11.547Z,8.80
2019-02-18T15:11:54.320Z,8.80
2019-02-18T15:14:25.544Z,8.80
2019-02-18T15:16:57.364Z,8.80
2019-02-18T15:19:29.108Z,8.80
2019-02-18T15:22:00.653Z,8.70
2019-02-18T15:24:32.355Z,8.80
2019-02-18T15:27:03.849Z,8.70
2019-02-18T15:29:36.188Z,8.70
2019-02-18T15:32:08.012Z,8.70
2019-02-18T15:34:39.903Z,8.60
2019-02-18T15:37:11.868Z,8.60
2019-02-18T15:39:44.320Z,8.60
2019-02-18T15:42:21.183Z,8.50
2019-02-18T15:44:55.194Z,8.60
2019-02-18T15:47:26.711Z,8.50
2019-02-18T15:49:58.133Z,8.50
2019-02-18T15:52:30.053Z,8.40
2019-02-18T15:55:01.496Z,8.40
2019-02-18T15:57:32.872Z,8.30
2019-02-18T16:00:04.702Z,8.30
2019-02-18T16:02:42.766Z,8.30
2019-02-18T16:05:14.308Z,8.30
2019-02-18T16:07:45.643Z,8.20
2019-02-18T16:10:17.405Z,8.20
2019-02-18T16:12:51.083Z,8.20
2019-02-18T16:15:22.762Z,8.20
2019-02-18T16:17:54.315Z,8.20
2019-02-18T16:20:25.804Z,8.10
2019-02-18T16:22:57.505Z,8.10
2019-02-18T16:25:29.705Z,8.10
2019-02-18T16:28:01.186Z,8.10
2019-02-18T16:30:32.814Z,8.00
2019-02-18T16:33:11.282Z,8.00
2019-02-18T16:35:43.133Z,8.00
2019-02-18T16:38:14.621Z,7.90
2019-02-18T16:40:45.946Z,7.90
2019-02-18T16:43:17.560Z,7.90
2019-02-18T16:45:49.011Z,7.90
2019-02-18T16:48:20.949Z,7.90
2019-02-18T16:50:52.909Z,7.80
2019-02-18T16:53:24.650Z,7.80
2019-02-18T16:55:56.212Z,7.80
2019-02-18T16:58:27.837Z,7.80
2019-02-18T17:00:59.948Z,7.80
2019-02-18T17:03:31.413Z,7.70
2019-02-18T17:06:02.785Z,7.70
2019-02-18T17:08:34.995Z,7.70
2019-02-18T17:11:06.458Z,7.70
2019-02-18T17:13:38.327Z,7.60
2019-02-18T17:16:10.406Z,7.60
2019-02-18T17:18:42.017Z,7.60
2019-02-18T17:21:13.735Z,7.50
2019-02-18T17:23:45.577Z,7.60
2019-02-18T17:26:17.217Z,7.60
2019-02-18T17:28:48.951Z,7.50
2019-02-18T17:31:20.598Z,7.50
2019-02-18T17:33:52.679Z,7.50
2019-02-18T17:36:23.901Z,7.50
2019-02-18T17:38:55.448Z,7.50
2019-02-18T17:41:32.102Z,7.50
2019-02-18T17:44:03.898Z,7.50
2019-02-18T17:46:36.571Z,7.50
2019-02-18T17:49:08.074Z,7.40
2019-02-18T17:51:39.912Z,7.40
2019-02-18T17:54:11.767Z,7.40
2019-02-18T17:56:44.211Z,7.40
2019-02-18T17:59:15.858Z,7.30
2019-02-18T18:01:47.146Z,7.30
2019-02-18T18:04:18.916Z,7.30
2019-02-18T18:06:50.725Z,7.30
2019-02-18T18:09:22.453Z,7.30
2019-02-18T18:11:54.130Z,7.30
2019-02-18T18:14:25.957Z,7.30
2019-02-18T18:16:57.487Z,7.20
2019-02-18T18:19:29.628Z,7.30
2019-02-18T18:22:01.078Z,7.30
2019-02-18T18:24:33.023Z,7.20
2019-02-18T18:27:04.994Z,7.20
2019-02-18T18:29:36.535Z,7.20
2019-02-18T18:32:08.930Z,7.20
2019-02-18T18:34:40.593Z,7.20
2019-02-18T18:37:12.510Z,7.20
2019-02-18T18:39:44.175Z,7.20
2019-02-18T18:42:21.721Z,7.10
2019-02-18T18:44:53.637Z,7.10
2019-02-18T18:47:25.211Z,7.00
2019-02-18T18:49:56.747Z,7.00
2019-02-18T18:52:28.399Z,6.90
2019-02-18T18:54:59.951Z,6.90
2019-02-18T18:57:31.694Z,6.90
2019-02-18T19:00:04.949Z,7.00
2019-02-18T19:02:38.076Z,6.90
2019-02-18T19:05:09.720Z,6.90
2019-02-18T19:07:41.897Z,6.90
2019-02-18T19:10:13.376Z,6.80
2019-02-18T19:12:45.259Z,6.80
2019-02-18T19:15:16.730Z,6.70
2019-02-18T19:17:48.479Z,6.70
2019-02-18T19:20:20.254Z,6.70
2019-02-18T19:22:52.551Z,6.60
2019-02-18T19:25:24.074Z,6.70
2019-02-18T19:27:55.654Z,6.60
2019-02-18T19:30:28.196Z,6.50
2019-02-18T19:33:00.000Z,6.50
2019-02-18T19:35:31.750Z,6.30
2019-02-18T19:38:03.358Z,6.20
2019-02-18T19:40:34.786Z,6.30
2019-02-18T19:43:07.123Z,6.30
2019-02-18T19:45:38.707Z,6.40
2019-02-18T19:48:10.795Z,6.40
2019-02-18T19:50:42.250Z,6.40
2019-02-18T19:53:14.010Z,6.40
2019-02-18T19:55:45.729Z,6.50
2019-02-18T19:58:17.104Z,6.40
2019-02-18T20:00:49.929Z,6.50
2019-02-18T20:03:21.855Z,6.50
2019-02-18T20:05:53.997Z,6.40
2019-02-18T20:08:25.698Z,6.40
2019-02-18T20:10:56.885Z,6.50
2019-02-18T20:13:28.874Z,6.40
2019-02-18T20:16:00.411Z,6.30
2019-02-18T20:18:31.761Z,6.40
2019-02-18T20:21:03.292Z,6.30
2019-02-18T20:23:34.698Z,6.20
2019-02-18T20:26:05.998Z,6.20
2019-02-18T20:28:37.413Z,6.20
2019-02-18T20:31:09.355Z,6.20
2019-02-18T20:33:40.721Z,6.20
2019-02-18T20:36:12.889Z,6.10
2019-02-18T20:38:44.484Z,6.20
2019-02-18T20:41:15.898Z,6.20
2019-02-18T20:43:47.722Z,6.10
2019-02-18T20:46:19.746Z,6.10
2019-02-18T20:48:51.582Z,6.10
2019-02-18T20:51:23.445Z,6.00
2019-02-18T20:53:55.534Z,6.00
2019-02-18T20:56:27.513Z,5.90
2019-02-18T20:58:58.885Z,5.80
2019-02-18T21:01:35.676Z,5.90
2019-02-18T21:04:07.133Z,5.90
2019-02-18T21:06:38.698Z,5.80
2019-02-18T21:09:10.606Z,5.80
2019-02-18T21:11:42.237Z,5.80
2019-02-18T21:14:16.163Z,5.80
2019-02-18T21:16:46.977Z,5.60
2019-02-18T21:19:18.588Z,5.60
2019-02-18T21:21:51.685Z,5.50
2019-02-18T21:24:23.052Z,5.60
2019-02-18T21:26:54.474Z,5.50
2019-02-18T21:29:25.902Z,5.40
2019-02-18T21:32:00.888Z,5.40
2019-02-18T21:34:32.450Z,5.30
2019-02-18T21:37:03.842Z,5.20
2019-02-18T21:39:36.205Z,5.10
2019-02-18T21:42:09.453Z,5.20
2019-02-18T21:44:41.044Z,5.20
2019-02-18T21:47:12.803Z,5.30
2019-02-18T21:49:44.385Z,5.20
2019-02-18T21:52:16.167Z,5.30
2019-02-18T21:54:47.680Z,5.20
2019-02-18T21:57:19.951Z,5.20
2019-02-18T21:59:52.748Z,5.20
2019-02-18T22:02:24.316Z,5.10
2019-02-18T22:04:57.206Z,5.20
2019-02-18T22:07:28.805Z,5.00
2019-02-18T22:10:00.306Z,5.10
2019-02-18T22:12:31.724Z,5.10
2019-02-18T22:15:03.091Z,5.10
2019-02-18T22:17:34.844Z,5.10
2019-02-18T22:20:07.372Z,5.10
2019-02-18T22:22:39.698Z,5.00
2019-02-18T22:25:11.741Z,4.90
2019-02-18T22:27:43.325Z,4.90
2019-02-18T22:30:16.055Z,5.10
2019-02-18T22:32:48.065Z,5.00
2019-02-18T22:35:20.093Z,4.90
2019-02-18T22:37:51.764Z,4.90
2019-02-18T22:40:23.194Z,4.90
2019-02-18T22:42:54.624Z,4.80
2019-02-18T22:45:26.309Z,4.80
2019-02-18T22:47:59.198Z,4.80
2019-02-18T22:50:30.732Z,4.70
2019-02-18T22:53:02.779Z,4.60
2019-02-18T22:55:34.383Z,4.50
2019-02-18T22:58:05.689Z,4.60
2019-02-18T23:01:03.993Z,4.70
2019-02-18T23:03:35.463Z,4.60
2019-02-18T23:06:07.075Z,4.60
2019-02-18T23:08:38.619Z,4.60
2019-02-18T23:11:10.579Z,4.60
2019-02-18T23:13:42.087Z,4.60
2019-02-18T23:16:14.627Z,4.60
2019-02-18T23:18:46.179Z,4.60
2019-02-18T23:21:17.710Z,4.60
2019-02-18T23:23:49.321Z,4.50
2019-02-18T23:26:20.790Z,4.50
2019-02-18T23:28:52.786Z,4.60
2019-02-18T23:31:24.506Z,4.50
2019-02-18T23:33:55.875Z,4.50
2019-02-18T23:36:27.690Z,4.40
2019-02-18T23:38:59.326Z,4.40
2019-02-18T23:41:36.146Z,4.40
2019-02-18T23:44:07.907Z,4.30
2019-02-18T23:46:39.493Z,4.40
2019-02-18T23:49:11.370Z,4.40
2019-02-18T23:51:42.955Z,4.30
2019-02-18T23:54:14.453Z,4.30
2019-02-18T23:56:46.948Z,4.20
2019-02-18T23:59:18.577Z,4.20
